Time;durP1;ratioP1;P1;durP2;ratioP2;P2;SDS_P1;SDS_P2;PMS_P1;PMS_P2;Temp;Humidity;BMP_temperature;BMP_pressure;BME280_temperature;BME280_humidity;BME280_pressure;Samples;Min_cycle;Max_cycle;Signal;HPM_P1;HPM_P2
2022/04/24 00:01:21;;;;;;;12.10;11.20;;;;;;;7.13;69.09;98934.22;10198426;29;20072;-74
2022/04/24 00:06:25;;;;;;;13.10;12.10;;;;;;;7.06;69.50;98923.16;10183177;29;20044;-74
2022/04/24 00:11:27;;;;;;;13.20;12.18;;;;;;;6.75;70.85;98923.34;10181992;29;20471;-74
2022/04/24 00:16:29;;;;;;;12.52;11.60;;;;;;;6.69;71.24;98910.50;10182474;29;20140;-75
2022/04/24 00:21:31;;;;;;;12.90;11.65;;;;;;;6.88;70.42;98906.34;10183828;29;20051;-73
2022/04/24 00:26:32;;;;;;;11.50;10.60;;;;;;;6.74;70.52;98892.94;10183722;29;20047;-73
2022/04/24 00:31:34;;;;;;;13.75;12.65;;;;;;;6.61;71.50;98891.63;10181327;29;20055;-74
2022/04/24 00:36:37;;;;;;;12.65;11.75;;;;;;;6.44;71.75;98882.59;10182467;29;20451;-74
2022/04/24 00:41:50;;;;;;;12.35;11.45;;;;;;;6.42;72.57;98883.53;10183091;29;20044;-74
2022/04/24 00:47:01;;;;;;;12.50;11.60;;;;;;;6.40;72.37;98880.16;10182161;29;20468;-74
2022/04/24 00:52:03;;;;;;;12.93;12.02;;;;;;;6.40;72.51;98872.31;10182407;29;20052;-74
2022/04/24 00:57:06;;;;;;;13.20;12.20;;;;;;;6.29;73.13;98870.06;10182189;29;20070;-74
2022/04/24 01:02:09;;;;;;;13.93;12.93;;;;;;;6.35;72.51;98861.19;10181687;29;20490;-75
2022/04/24 01:07:11;;;;;;;13.40;12.40;;;;;;;6.19;73.22;98850.38;10182144;29;20096;-74
2022/04/24 01:12:13;;;;;;;14.30;12.98;;;;;;;6.12;73.42;98847.13;10181085;29;20060;-74
2022/04/24 01:17:14;;;;;;;14.68;13.63;;;;;;;6.01;74.01;98834.41;10181963;29;20127;-75
2022/04/24 01:22:17;;;;;;;14.05;12.85;;;;;;;6.03;74.08;98845.69;10182644;29;20059;-75
2022/04/24 01:27:19;;;;;;;14.50;13.43;;;;;;;5.92;74.32;98832.13;10181933;29;20388;-73
2022/04/24 01:32:20;;;;;;;13.98;12.95;;;;;;;5.72;75.25;98829.28;10181978;29;20104;-75
2022/04/24 01:37:22;;;;;;;15.00;13.90;;;;;;;5.89;74.58;98834.81;10181638;29;20047;-73
2022/04/24 01:42:24;;;;;;;15.05;13.80;;;;;;;5.74;75.00;98825.69;10180419;29;20056;-74
2022/04/24 01:47:26;;;;;;;15.50;14.40;;;;;;;5.74;75.35;98819.63;10181234;29;20127;-74
2022/04/24 01:52:28;;;;;;;16.05;14.73;;;;;;;5.73;75.30;98815.31;10149440;23;20048;-71
2022/04/24 01:57:29;;;;;;;16.13;14.93;;;;;;;5.61;75.79;98811.34;10139473;29;20049;-71
2022/04/24 02:02:31;;;;;;;16.52;15.23;;;;;;;5.51;76.36;98799.50;10139122;29;20052;-71
2022/04/24 02:07:32;;;;;;;16.50;15.40;;;;;;;5.48;76.69;98792.63;10139464;29;20105;-71
2022/04/24 02:12:35;;;;;;;15.93;14.73;;;;;;;5.38;76.82;98782.53;10137075;29;20108;-71
2022/04/24 02:17:37;;;;;;;16.98;15.73;;;;;;;5.12;77.49;98776.34;10137183;29;20075;-71
2022/04/24 02:22:39;;;;;;;16.55;15.32;;;;;;;4.90;79.16;98775.28;10147883;29;20044;-71
2022/04/24 02:27:41;;;;;;;14.98;13.88;;;;;;;4.95;79.20;98771.63;10145064;29;20131;-72
2022/04/24 02:32:42;;;;;;;15.60;14.50;;;;;;;5.02;79.09;98767.13;10127657;29;20089;-71
2022/04/24 02:37:44;;;;;;;15.93;14.82;;;;;;;5.04;78.41;98779.19;10144317;29;20553;-71
2022/04/24 02:42:45;;;;;;;17.55;16.15;;;;;;;5.04;78.50;98770.50;10146220;29;20048;-71
2022/04/24 02:47:47;;;;;;;15.10;14.10;;;;;;;5.07;78.53;98766.06;10145229;29;20052;-71
2022/04/24 02:52:51;;;;;;;16.80;15.52;;;;;;;5.19;77.96;98782.25;10144329;29;20055;-71
2022/04/24 02:57:53;;;;;;;16.13;15.02;;;;;;;5.19;76.92;98771.81;10145533;29;20040;-71
2022/04/24 03:02:55;;;;;;;16.02;14.73;;;;;;;5.11;77.13;98769.44;10129314;29;20041;-71
2022/04/24 03:07:56;;;;;;;16.17;14.98;;;;;;;4.92;78.37;98776.97;10144276;29;20044;-71
2022/04/24 03:12:58;;;;;;;16.70;15.52;;;;;;;4.84;79.00;98772.88;10126121;29;20059;-71
2022/04/24 03:17:59;;;;;;;16.23;15.13;;;;;;;4.65;79.59;98772.50;10143317;29;20044;-72
2022/04/24 03:23:01;;;;;;;16.60;15.40;;;;;;;4.65;79.94;98757.78;10110624;29;20060;-71
2022/04/24 03:28:03;;;;;;;16.02;14.82;;;;;;;4.76;79.11;98760.06;10144861;29;20396;-71
2022/04/24 03:33:05;;;;;;;16.48;14.18;;;;;;;4.51;80.13;98765.94;10125370;29;20451;-71
2022/04/24 03:38:06;;;;;;;15.75;14.55;;;;;;;4.58;79.61;98757.97;10110797;29;20140;-71
2022/04/24 03:43:08;;;;;;;15.52;14.43;;;;;;;4.72;78.77;98753.22;10143066;29;20052;-71
2022/04/24 03:48:09;;;;;;;15.68;14.52;;;;;;;4.63;78.93;98745.69;10146381;29;20041;-71
2022/04/24 03:53:12;;;;;;;15.38;14.30;;;;;;;4.64;79.11;98750.84;10141139;29;20067;-71
2022/04/24 03:58:14;;;;;;;14.35;13.30;;;;;;;4.52;79.19;98754.66;10142842;29;20052;-71
2022/04/24 04:03:16;;;;;;;14.70;13.60;;;;;;;4.41;80.51;98753.22;10142108;29;20072;-71
2022/04/24 04:08:18;;;;;;;15.88;14.77;;;;;;;4.27;81.37;98753.59;10144685;29;20049;-71
2022/04/24 04:13:19;;;;;;;15.45;14.32;;;;;;;4.13;82.75;98753.97;10141342;29;20049;-71
2022/04/24 04:18:21;;;;;;;14.05;13.05;;;;;;;4.25;82.63;98747.56;10139269;29;20456;-71
2022/04/24 04:23:22;;;;;;;16.63;14.68;;;;;;;4.74;81.46;98757.50;10141028;29;20078;-71
2022/04/24 04:28:24;;;;;;;14.98;13.88;;;;;;;4.88;80.16;98754.50;10141816;29;20499;-71
2022/04/24 04:33:26;;;;;;;14.27;13.27;;;;;;;4.81;80.31;98752.97;10140164;29;20074;-71
2022/04/24 04:38:27;;;;;;;15.90;14.63;;;;;;;4.93;80.78;98751.75;10140181;29;20089;-71
2022/04/24 04:43:29;;;;;;;16.63;15.35;;;;;;;5.11;79.55;98752.97;10139338;29;20101;-71
2022/04/24 04:48:31;;;;;;;16.55;15.07;;;;;;;5.46;78.51;98750.13;10140497;29;20052;-71
2022/04/24 04:53:34;;;;;;;16.45;15.32;;;;;;;5.40;78.24;98758.16;10141576;29;20048;-71
2022/04/24 04:58:36;;;;;;;18.90;17.10;;;;;;;5.28;79.94;98751.56;10122671;29;20499;-72
2022/04/24 05:03:38;;;;;;;18.55;17.25;;;;;;;5.47;79.55;98743.16;10139217;29;20048;-72
2022/04/24 05:08:39;;;;;;;19.23;17.83;;;;;;;5.68;79.27;98752.06;10139759;29;20049;-72
2022/04/24 05:13:41;;;;;;;19.63;18.33;;;;;;;5.78;79.15;98743.03;10141845;29;20048;-73
2022/04/24 05:18:42;;;;;;;19.27;17.88;;;;;;;5.85;78.62;98735.88;10137871;29;20051;-73
2022/04/24 05:23:46;;;;;;;20.42;18.70;;;;;;;6.07;78.23;98732.50;10121910;29;20065;-72
2022/04/24 05:28:48;;;;;;;18.52;17.13;;;;;;;6.15;77.16;98731.38;10139095;29;20132;-72
2022/04/24 05:33:49;;;;;;;20.73;18.55;;;;;;;6.24;77.11;98736.25;10122663;29;20132;-72
2022/04/24 05:38:51;;;;;;;18.35;17.00;;;;;;;6.63;75.85;98744.44;10140714;29;20056;-72
2022/04/24 05:43:52;;;;;;;18.77;17.58;;;;;;;6.92;76.37;98732.09;10138968;29;20533;-72
2022/04/24 05:48:55;;;;;;;17.25;16.05;;;;;;;7.16;74.43;98732.88;10136088;29;20052;-70
2022/04/24 05:53:56;;;;;;;17.50;16.30;;;;;;;7.50;73.45;98725.44;10137521;29;20048;-72
2022/04/24 05:58:58;;;;;;;17.05;15.95;;;;;;;7.70;72.47;98724.63;10140377;29;20041;-72
2022/04/24 06:04:00;;;;;;;17.35;16.20;;;;;;;7.74;72.87;98717.50;10138164;29;20100;-72
2022/04/24 06:09:01;;;;;;;18.50;17.10;;;;;;;7.84;72.41;98713.59;10136642;29;20060;-70
2022/04/24 06:14:03;;;;;;;16.52;15.43;;;;;;;7.76;71.67;98702.59;10137781;29;20109;-71
2022/04/24 06:19:05;;;;;;;16.92;15.52;;;;;;;7.67;71.37;98690.75;10140299;29;20048;-71
2022/04/24 06:24:06;;;;;;;16.38;15.15;;;;;;;7.79;68.85;98681.53;10137212;29;20085;-71
2022/04/24 06:29:08;;;;;;;16.05;14.85;;;;;;;7.80;68.18;98676.25;10137713;29;20044;-72
2022/04/24 06:34:10;;;;;;;15.68;14.48;;;;;;;7.97;68.18;98677.28;10138777;29;20112;-72
2022/04/24 06:39:12;;;;;;;15.75;14.68;;;;;;;8.05;67.28;98662.94;10120387;29;20092;-72
2022/04/24 06:44:14;;;;;;;14.15;13.13;;;;;;;8.26;67.39;98655.94;10138889;29;20117;-71
2022/04/24 06:49:15;;;;;;;15.13;14.02;;;;;;;8.59;66.90;98643.13;10136620;29;20081;-70
2022/04/24 06:54:17;;;;;;;15.50;14.48;;;;;;;9.08;64.64;98648.69;10135894;29;20056;-71
2022/04/24 06:59:18;;;;;;;16.25;15.05;;;;;;;9.65;62.03;98648.56;10120189;29;20090;-69
2022/04/24 07:04:20;;;;;;;14.80;13.88;;;;;;;9.81;61.18;98633.72;10122905;29;20061;-72
2022/04/24 07:09:21;;;;;;;15.13;14.02;;;;;;;10.11;61.64;98644.41;10125879;29;20097;-71
2022/04/24 07:14:23;;;;;;;13.80;12.90;;;;;;;10.44;60.68;98637.50;10144076;29;20406;-71
2022/04/24 07:19:24;;;;;;;14.25;13.27;;;;;;;10.59;59.67;98634.06;10126318;29;20055;-71
2022/04/24 07:24:26;;;;;;;14.40;13.40;;;;;;;10.63;59.13;98640.00;10147002;29;20049;-72
2022/04/24 07:29:28;;;;;;;13.57;12.57;;;;;;;10.58;58.98;98630.59;10142721;29;20053;-72
2022/04/24 07:34:29;;;;;;;14.68;13.43;;;;;;;10.83;60.19;98631.84;10143401;29;20056;-71
2022/04/24 07:39:31;;;;;;;13.52;12.52;;;;;;;11.53;57.63;98622.59;10143252;29;20052;-72
2022/04/24 07:44:33;;;;;;;13.07;12.18;;;;;;;11.71;56.95;98630.38;10141703;29;20052;-72
2022/04/24 07:49:34;;;;;;;13.20;12.30;;;;;;;11.70;56.28;98626.91;10161263;23;20100;-71
2022/04/24 07:54:36;;;;;;;11.77;10.98;;;;;;;11.97;56.47;98634.97;10207255;29;20387;-71
2022/04/24 07:59:38;;;;;;;13.02;12.13;;;;;;;12.24;55.25;98631.63;10224176;29;20417;-70
2022/04/24 08:04:40;;;;;;;13.18;12.27;;;;;;;12.10;55.40;98624.56;10226209;29;20054;-71
2022/04/24 08:09:43;;;;;;;14.80;12.98;;;;;;;12.43;55.63;98626.91;10226219;29;20146;-72
2022/04/24 08:14:44;;;;;;;14.55;13.55;;;;;;;12.62;54.52;98626.63;10224799;29;20466;-71
2022/04/24 08:19:46;;;;;;;14.27;13.32;;;;;;;12.91;53.71;98618.66;10201329;29;20048;-71
2022/04/24 08:24:48;;;;;;;15.23;14.10;;;;;;;12.87;53.46;98616.22;10219929;29;20044;-72
2022/04/24 08:29:49;;;;;;;15.05;13.95;;;;;;;13.06;52.43;98620.31;10219581;29;20048;-70
2022/04/24 08:34:51;;;;;;;15.25;14.15;;;;;;;12.98;52.74;98610.25;10217854;29;20059;-71
2022/04/24 08:39:53;;;;;;;16.35;15.05;;;;;;;13.14;52.73;98603.03;10219545;29;20044;-70
2022/04/24 08:44:57;;;;;;;16.05;14.77;;;;;;;13.14;52.50;98602.19;10218194;29;20448;-71
2022/04/24 08:50:01;;;;;;;15.50;14.27;;;;;;;13.24;52.88;98597.22;10218951;29;20103;-71
2022/04/24 08:55:03;;;;;;;16.48;15.02;;;;;;;13.34;52.72;98598.28;10217467;29;20063;-70
2022/04/24 09:00:07;;;;;;;15.55;14.45;;;;;;;13.41;53.79;98596.06;10219026;29;20399;-69
2022/04/24 09:05:22;;;;;;;13.25;12.02;;;;;;;13.57;50.61;98579.13;10219271;29;20051;-70
2022/04/24 09:10:23;;;;;;;11.43;10.43;;;;;;;13.68;49.68;98577.53;10216173;29;20048;-70
2022/04/24 09:15:26;;;;;;;10.15;9.23;;;;;;;13.95;49.39;98565.13;10216432;29;20055;-71
2022/04/24 09:20:31;;;;;;;8.20;7.70;;;;;;;13.91;46.56;98570.72;10218008;29;20048;-72
2022/04/24 09:25:40;;;;;;;8.02;7.43;;;;;;;13.99;45.65;98573.66;10217416;29;20048;-71
2022/04/24 09:30:48;;;;;;;7.32;6.68;;;;;;;14.07;45.21;98566.88;10216911;29;20075;-73
2022/04/24 09:35:54;;;;;;;7.45;6.68;;;;;;;14.15;45.60;98574.28;10216265;29;20099;-71
2022/04/24 09:40:56;;;;;;;7.97;7.30;;;;;;;14.16;45.13;98578.63;10216191;29;20131;-71
2022/04/24 09:45:58;;;;;;;8.07;7.47;;;;;;;13.95;46.00;98574.84;10216024;29;20058;-72
2022/04/24 09:51:00;;;;;;;7.53;6.97;;;;;;;13.87;45.73;98580.66;10214598;29;20052;-70
2022/04/24 09:56:02;;;;;;;7.82;7.25;;;;;;;13.64;46.25;98579.56;10216035;29;20056;-72
2022/04/24 10:01:06;;;;;;;8.70;8.05;;;;;;;13.51;46.48;98571.63;10215368;29;20509;-71
2022/04/24 10:06:09;;;;;;;10.43;9.63;;;;;;;13.44;47.35;98577.41;10216281;29;20409;-71
2022/04/24 10:11:11;;;;;;;9.15;8.50;;;;;;;13.44;47.46;98587.97;10215906;29;20055;-72
2022/04/24 10:16:31;;;;;;;10.52;9.55;;;;;;;13.26;48.10;98590.03;10215796;29;20107;-71
2022/04/24 10:21:57;;;;;;;10.18;9.38;;;;;;;13.25;48.90;98609.44;10216282;29;20044;-71
2022/04/24 10:26:59;;;;;;;10.23;9.53;;;;;;;13.04;49.37;98599.31;10216741;29;20048;-71
2022/04/24 10:32:02;;;;;;;9.60;8.95;;;;;;;12.93;51.53;98598.31;10217059;29;20046;-72
2022/04/24 10:37:04;;;;;;;10.52;9.73;;;;;;;12.65;53.06;98604.47;10215923;29;20111;-71
2022/04/24 10:42:08;;;;;;;10.43;9.60;;;;;;;12.57;52.91;98612.88;10219482;29;20040;-70
2022/04/24 10:47:11;;;;;;;9.15;8.48;;;;;;;12.42;53.21;98608.56;10224208;29;20490;-71
2022/04/24 10:52:13;;;;;;;7.50;6.90;;;;;;;12.29;52.04;98619.00;10222715;29;20099;-70
2022/04/24 10:57:20;;;;;;;8.40;7.75;;;;;;;12.03;53.70;98631.97;10223976;29;20110;-71
2022/04/24 11:02:26;;;;;;;8.05;6.78;;;;;;;11.88;52.88;98632.88;10222137;29;20107;-72
2022/04/24 11:07:31;;;;;;;7.47;6.88;;;;;;;11.84;52.53;98631.38;10222957;29;20090;-70
2022/04/24 11:12:33;;;;;;;7.18;6.57;;;;;;;11.81;54.12;98627.09;10222823;29;20103;-72
2022/04/24 11:17:35;;;;;;;8.80;8.00;;;;;;;11.68;56.11;98636.66;10223628;29;20063;-71
2022/04/24 11:22:51;;;;;;;8.00;7.20;;;;;;;11.64;57.53;98635.13;10223044;29;20059;-71
2022/04/24 11:27:56;;;;;;;8.38;7.38;;;;;;;11.11;60.70;98632.03;10220680;29;20486;-71
2022/04/24 11:33:06;;;;;;;8.77;8.10;;;;;;;11.02;64.18;98643.06;10223683;29;20099;-71
2022/04/24 11:38:12;;;;;;;9.65;8.95;;;;;;;10.84;66.83;98644.91;10223867;29;20482;-72
2022/04/24 11:43:21;;;;;;;9.70;9.00;;;;;;;10.85;66.61;98643.16;10224074;29;20048;-73
2022/04/24 11:53:54;;;;;;;10.75;10.07;;;;;;;10.61;67.48;98643.53;10221011;29;20585;-75
2022/04/24 11:59:14;;;;;;;12.32;11.45;;;;;;;10.63;69.72;98635.59;10221636;29;20127;-72
2022/04/24 12:04:19;;;;;;;11.20;10.50;;;;;;;10.74;68.76;98651.59;10221142;29;20048;-73
2022/04/24 12:09:25;;;;;;;11.60;10.80;;;;;;;10.75;69.36;98640.16;10221539;29;20447;-71
2022/04/24 12:14:35;;;;;;;11.77;10.98;;;;;;;10.95;67.67;98646.13;10220835;29;20134;-73
2022/04/24 12:19:48;;;;;;;13.18;11.90;;;;;;;10.92;68.64;98652.38;10220548;29;20047;-73
2022/04/24 12:24:49;;;;;;;12.73;11.73;;;;;;;11.06;67.71;98649.81;10221278;29;20047;-74
2022/04/24 12:29:51;;;;;;;13.35;12.50;;;;;;;11.06;70.55;98644.56;10220706;29;20064;-73
2022/04/24 12:34:52;;;;;;;12.60;11.70;;;;;;;11.02;65.47;98637.81;10221922;29;20048;-74
2022/04/24 12:39:54;;;;;;;12.35;11.55;;;;;;;11.05;65.50;98640.25;10219662;29;20051;-73
2022/04/24 12:44:56;;;;;;;11.93;11.13;;;;;;;10.97;66.52;98637.19;10219859;29;20056;-74
2022/04/24 12:50:03;;;;;;;12.45;11.57;;;;;;;11.07;67.51;98630.50;10220908;29;20484;-74
2022/04/24 12:55:08;;;;;;;11.68;10.77;;;;;;;11.23;65.91;98643.63;10217060;29;20039;-74
2022/04/24 13:00:11;;;;;;;11.52;10.73;;;;;;;11.18;68.05;98637.78;10218650;29;20084;-74
2022/04/24 13:05:13;;;;;;;11.52;10.63;;;;;;;11.45;64.59;98634.50;10217529;29;20557;-74
2022/04/24 13:10:15;;;;;;;10.77;10.07;;;;;;;11.36;67.34;98628.00;10218064;29;20044;-73
2022/04/24 13:15:16;;;;;;;12.48;11.57;;;;;;;11.46;71.03;98633.56;10218023;29;20140;-74
2022/04/24 13:20:18;;;;;;;13.52;12.73;;;;;;;11.23;74.46;98642.78;10217851;29;20456;-74
2022/04/24 13:25:41;;;;;;;13.80;12.70;;;;;;;10.97;70.56;98649.50;10219306;29;20048;-73
2022/04/24 13:30:46;;;;;;;13.15;12.20;;;;;;;10.95;70.23;98652.22;10217841;29;20512;-73
2022/04/24 13:35:48;;;;;;;14.77;13.88;;;;;;;10.73;73.77;98667.47;10217632;29;20044;-73
2022/04/24 13:40:54;;;;;;;13.00;12.10;;;;;;;10.89;72.36;98668.34;10217549;29;20043;-75
2022/04/24 13:45:56;;;;;;;9.38;8.68;;;;;;;10.59;69.62;98663.81;10215664;29;20052;-75
2022/04/24 13:50:59;;;;;;;9.63;8.95;;;;;;;10.48;73.05;98668.78;10215051;29;20040;-74
2022/04/24 13:56:01;;;;;;;9.40;8.80;;;;;;;10.44;73.79;98661.97;10216863;29;20055;-74
2022/04/24 14:01:04;;;;;;;11.68;10.98;;;;;;;10.46;76.63;98668.03;10216162;29;20048;-74
2022/04/24 14:06:05;;;;;;;11.68;10.93;;;;;;;10.44;78.56;98659.34;10216001;29;20052;-73
2022/04/24 14:11:09;;;;;;;11.52;10.52;;;;;;;10.37;77.86;98662.41;10214538;29;20043;-75
2022/04/24 14:16:10;;;;;;;8.90;8.20;;;;;;;10.25;74.80;98669.13;10217414;29;20043;-73
2022/04/24 14:21:12;;;;;;;8.73;8.13;;;;;;;10.23;74.52;98676.22;10223581;29;20052;-74
2022/04/24 14:26:19;;;;;;;8.82;8.07;;;;;;;10.16;75.95;98683.56;10206922;29;20083;-73
2022/04/24 14:31:20;;;;;;;8.00;7.50;;;;;;;9.84;75.38;98682.59;10223281;29;20473;-72
2022/04/24 14:36:22;;;;;;;8.30;7.57;;;;;;;9.65;77.19;98685.28;10223441;29;20047;-74
2022/04/24 14:41:24;;;;;;;8.35;7.75;;;;;;;9.57;80.22;98690.91;10221307;29;20040;-72
2022/04/24 14:57:07;;;;;;;9.02;8.38;;;;;;;9.63;81.75;98692.38;10221887;29;20044;-71
2022/04/24 15:02:10;;;;;;;10.70;9.77;;;;;;;9.43;84.78;98698.59;10222068;29;20118;-72
2022/04/24 15:07:12;;;;;;;10.82;9.88;;;;;;;9.37;85.19;98698.88;10240955;29;20058;-72
2022/04/24 15:12:14;;;;;;;10.55;9.70;;;;;;;9.22;87.25;98704.88;10226410;29;20406;-72
2022/04/24 15:17:16;;;;;;;8.98;8.38;;;;;;;9.29;85.70;98711.50;10221615;29;20059;-72
2022/04/24 15:22:18;;;;;;;9.57;8.88;;;;;;;9.26;86.15;98715.13;10243394;29;20043;-72
2022/04/24 15:27:20;;;;;;;9.13;8.52;;;;;;;9.29;83.72;98701.00;10242951;28;20449;-72
2022/04/24 15:32:22;;;;;;;8.40;7.90;;;;;;;9.22;83.21;98721.44;10260378;29;20054;-72
2022/04/24 15:37:24;;;;;;;9.48;8.73;;;;;;;9.24;84.63;98719.59;10246399;29;20501;-71
2022/04/24 15:42:25;;;;;;;8.80;8.18;;;;;;;9.28;82.77;98728.16;10220883;29;20112;-71
2022/04/24 15:47:29;;;;;;;9.80;9.10;;;;;;;9.15;86.34;98722.66;10219502;29;20063;-73
2022/04/24 15:52:31;;;;;;;9.98;9.30;;;;;;;9.27;87.05;98729.94;10220873;29;20036;-72
2022/04/24 15:57:34;;;;;;;10.90;10.20;;;;;;;9.09;88.68;98736.91;10220410;29;20054;-72
2022/04/24 16:02:38;;;;;;;9.63;9.02;;;;;;;9.28;86.90;98739.50;10220350;29;20051;-73
2022/04/24 16:07:40;;;;;;;10.75;10.05;;;;;;;9.48;87.58;98741.19;10221618;29;20059;-73
2022/04/24 16:12:50;;;;;;;10.88;10.18;;;;;;;9.27;88.16;98744.81;10242152;29;20047;-73
2022/04/24 16:17:52;;;;;;;11.45;10.75;;;;;;;9.25;88.79;98741.41;10259825;29;20074;-73
2022/04/24 16:22:56;;;;;;;10.88;10.18;;;;;;;9.20;89.01;98744.25;10259682;29;20047;-72
2022/04/24 16:27:58;;;;;;;10.63;9.88;;;;;;;9.47;86.82;98742.09;10259442;29;20048;-74
2022/04/24 16:33:00;;;;;;;10.30;9.63;;;;;;;9.17;88.42;98744.41;10259130;29;20043;-73
2022/04/24 16:38:02;;;;;;;11.18;10.38;;;;;;;9.28;89.37;98749.97;10240041;28;20086;-73
2022/04/24 16:43:04;;;;;;;11.75;10.85;;;;;;;8.96;90.07;98748.03;10240881;29;20047;-74
2022/04/24 16:48:06;;;;;;;11.63;10.82;;;;;;;8.93;90.97;98750.78;10259483;29;20071;-73
2022/04/24 16:58:46;;;;;;;11.02;10.10;;;;;;;9.06;88.66;98747.50;10258498;29;20416;-73
2022/04/24 17:03:50;;;;;;;10.63;9.88;;;;;;;8.72;91.09;98760.44;10258886;29;20481;-73
2022/04/24 17:08:53;;;;;;;9.50;8.80;;;;;;;8.75;90.49;98757.69;10258002;29;20058;-73
2022/04/24 17:13:57;;;;;;;9.00;8.43;;;;;;;8.70;89.07;98757.91;10240080;29;20078;-73
2022/04/24 17:18:58;;;;;;;9.75;9.05;;;;;;;8.52;88.79;98751.69;10257768;29;20043;-72
2022/04/24 17:24:02;;;;;;;9.77;8.98;;;;;;;8.56;87.65;98755.88;10257266;29;20043;-74
2022/04/24 17:29:03;;;;;;;9.20;8.60;;;;;;;8.31;89.11;98756.06;10240088;29;20421;-73
2022/04/24 17:34:05;;;;;;;10.98;10.18;;;;;;;8.36;90.66;98755.84;10237862;29;20048;-73
2022/04/24 17:39:07;;;;;;;10.60;9.75;;;;;;;8.44;88.75;98773.91;10216044;29;20095;-72
2022/04/24 17:44:09;;;;;;;10.63;9.93;;;;;;;8.38;89.18;98768.94;10215574;29;20044;-72
2022/04/24 17:49:10;;;;;;;10.80;10.10;;;;;;;8.24;89.86;98770.34;10216084;29;20051;-73
2022/04/24 17:54:13;;;;;;;10.60;9.90;;;;;;;8.28;90.25;98771.06;10217295;29;20068;-74
2022/04/24 17:59:17;;;;;;;10.93;10.18;;;;;;;8.07;92.45;98776.28;10217656;29;20047;-73
2022/04/24 18:04:21;;;;;;;11.65;10.85;;;;;;;8.25;91.73;98785.13;10217520;29;20054;-72
2022/04/24 18:09:23;;;;;;;11.95;11.00;;;;;;;8.17;93.41;98786.38;10216125;29;20051;-72
2022/04/24 18:14:27;;;;;;;12.85;11.95;;;;;;;8.08;95.72;98801.53;10217902;29;20043;-72
2022/04/24 18:19:32;;;;;;;12.63;11.82;;;;;;;8.01;97.67;98807.94;10216258;29;20070;-72
2022/04/24 18:24:34;;;;;;;14.43;13.52;;;;;;;8.08;95.60;98811.16;10215813;29;20087;-73
2022/04/24 18:29:37;;;;;;;13.45;12.60;;;;;;;7.99;97.64;98822.00;10216000;29;20414;-73
2022/04/24 18:34:39;;;;;;;15.00;13.98;;;;;;;7.99;98.04;98819.38;10215246;29;20051;-73
2022/04/24 18:39:40;;;;;;;14.93;14.02;;;;;;;7.98;97.58;98831.63;10216450;29;20051;-72
2022/04/24 18:44:48;;;;;;;29.98;27.00;;;;;;;8.02;98.86;98829.75;10215795;29;20052;-72
2022/04/24 18:49:51;;;;;;;20.98;19.58;;;;;;;8.22;97.14;98834.13;10215911;29;20501;-73
2022/04/24 18:54:53;;;;;;;23.50;21.70;;;;;;;8.09;98.88;98832.03;10216491;29;20047;-72
2022/04/24 18:59:57;;;;;;;21.73;20.05;;;;;;;7.97;99.57;98839.50;10214298;29;20071;-73
2022/04/24 19:15:40;;;;;;;16.75;15.65;;;;;;;8.28;97.66;98849.63;10223919;29;20107;-72
2022/04/24 19:20:42;;;;;;;17.92;16.73;;;;;;;8.02;100.00;98856.75;10206728;29;20054;-72
2022/04/24 19:25:50;;;;;;;19.80;18.60;;;;;;;7.86;100.00;98853.03;10221674;29;20395;-72
2022/04/24 19:30:51;;;;;;;15.88;14.88;;;;;;;8.13;100.00;98852.84;10221331;29;20051;-71
2022/04/24 19:35:54;;;;;;;18.27;17.08;;;;;;;7.88;100.00;98861.69;10223498;29;20520;-71
2022/04/24 19:40:57;;;;;;;19.15;17.77;;;;;;;7.91;100.00;98864.16;10221297;29;20048;-72
2022/04/24 19:46:00;;;;;;;21.60;20.20;;;;;;;7.69;100.00;98856.31;10220718;29;20055;-73
2022/04/24 19:51:02;;;;;;;20.48;18.98;;;;;;;7.77;100.00;98863.88;10221819;29;20126;-74
2022/04/24 19:56:05;;;;;;;18.67;17.38;;;;;;;7.87;100.00;98862.59;10221361;29;20047;-74
2022/04/24 20:01:06;;;;;;;20.80;19.30;;;;;;;7.70;100.00;98871.09;10219867;29;20146;-74
2022/04/24 20:06:09;;;;;;;19.52;18.17;;;;;;;7.83;100.00;98872.34;10221755;29;20086;-72
2022/04/24 20:11:11;;;;;;;21.85;20.42;;;;;;;7.75;100.00;98869.16;10222108;29;20048;-74
2022/04/24 20:16:12;;;;;;;20.80;19.35;;;;;;;7.73;100.00;98868.34;10220891;29;20055;-72
2022/04/24 20:21:15;;;;;;;19.90;18.60;;;;;;;7.70;100.00;98865.00;10225912;29;20035;-73
2022/04/24 20:26:18;;;;;;;22.48;20.95;;;;;;;7.56;100.00;98876.84;10227063;29;20131;-74
2022/04/24 20:31:20;;;;;;;22.00;20.50;;;;;;;7.51;100.00;98878.78;10225122;29;20048;-73
2022/04/24 20:36:21;;;;;;;21.38;19.88;;;;;;;7.78;100.00;98876.88;10225465;29;20047;-73
2022/04/24 20:41:23;;;;;;;20.15;18.85;;;;;;;7.72;100.00;98878.88;10223227;29;20095;-73
2022/04/24 20:46:25;;;;;;;20.23;18.88;;;;;;;7.72;100.00;98874.50;10223517;29;20052;-73
2022/04/24 20:51:27;;;;;;;19.90;18.50;;;;;;;7.76;100.00;98873.47;10224251;29;20139;-73
2022/04/24 20:56:33;;;;;;;21.60;20.13;;;;;;;7.77;100.00;98869.09;10224071;29;20048;-73
2022/04/24 21:01:36;;;;;;;20.20;18.90;;;;;;;7.84;100.00;98875.81;10223071;29;20060;-73
2022/04/24 21:06:41;;;;;;;22.35;20.75;;;;;;;7.68;100.00;98872.91;10223496;29;20051;-73
2022/04/24 21:11:45;;;;;;;19.75;18.35;;;;;;;7.76;100.00;98863.00;10222878;29;20054;-73
2022/04/24 21:16:47;;;;;;;19.20;18.00;;;;;;;7.86;100.00;98870.50;10221672;29;20051;-73
2022/04/24 21:21:48;;;;;;;21.02;19.25;;;;;;;7.74;100.00;98866.59;10223272;29;20043;-73
2022/04/24 21:26:50;;;;;;;20.08;18.77;;;;;;;7.59;100.00;98873.28;10222542;29;20051;-73
2022/04/24 21:31:52;;;;;;;21.30;19.77;;;;;;;7.61;100.00;98873.19;10220888;29;20486;-73
2022/04/24 21:36:53;;;;;;;21.25;19.92;;;;;;;7.61;100.00;98875.81;10219995;29;20055;-71
2022/04/24 21:41:55;;;;;;;20.58;19.17;;;;;;;7.64;100.00;98889.63;10216974;29;20048;-73
2022/04/24 21:46:57;;;;;;;19.00;17.80;;;;;;;7.69;100.00;98886.84;10215118;29;20111;-73
2022/04/24 21:51:58;;;;;;;21.05;19.75;;;;;;;7.69;100.00;98884.22;10217235;29;20502;-72
2022/04/24 21:57:00;;;;;;;21.65;20.20;;;;;;;7.65;100.00;98882.63;10217254;29;20382;-73
2022/04/24 22:07:23;;;;;;;20.40;19.13;;;;;;;7.55;100.00;98890.00;10217093;29;20052;-73
2022/04/24 22:12:24;;;;;;;20.55;19.25;;;;;;;7.57;100.00;98896.03;10216638;29;20043;-74
2022/04/24 22:17:26;;;;;;;19.27;18.08;;;;;;;7.70;100.00;98892.03;10216917;29;20055;-73
2022/04/24 22:27:47;;;;;;;20.80;19.45;;;;;;;7.61;100.00;98904.59;10216508;29;20052;-73
2022/04/24 22:32:49;;;;;;;19.08;17.77;;;;;;;7.79;100.00;98912.59;10217145;29;20174;-72
2022/04/24 22:37:51;;;;;;;19.55;18.20;;;;;;;7.68;100.00;98914.75;10218781;29;20043;-73
2022/04/24 22:42:54;;;;;;;19.42;18.23;;;;;;;7.66;100.00;98918.34;10223331;29;20099;-72
2022/04/24 22:47:55;;;;;;;21.13;19.73;;;;;;;7.61;100.00;98918.50;10223324;29;20044;-72
2022/04/24 22:52:57;;;;;;;19.85;18.65;;;;;;;7.73;100.00;98911.97;10223573;29;20058;-72
2022/04/24 22:57:59;;;;;;;19.13;17.92;;;;;;;7.71;100.00;98911.19;10223643;29;20067;-73
2022/04/24 23:03:02;;;;;;;18.85;17.60;;;;;;;7.76;100.00;98922.34;10222868;29;20051;-72
2022/04/24 23:08:05;;;;;;;21.35;19.60;;;;;;;7.75;100.00;98931.09;10221500;29;20099;-72
2022/04/24 23:13:07;;;;;;;21.90;20.40;;;;;;;7.66;100.00;98929.69;10222854;29;20056;-72
2022/04/24 23:23:29;;;;;;;26.38;24.55;;;;;;;7.76;100.00;98932.78;10224159;29;20073;-73
2022/04/24 23:28:31;;;;;;;25.45;23.65;;;;;;;7.69;100.00;98939.16;10223389;29;20487;-73
2022/04/24 23:33:32;;;;;;;26.92;24.80;;;;;;;7.61;100.00;98928.13;10221220;29;20051;-74
2022/04/24 23:38:34;;;;;;;29.08;26.98;;;;;;;7.55;100.00;98934.44;10221069;29;20110;-72
2022/04/24 23:43:35;;;;;;;28.85;27.05;;;;;;;7.60;100.00;98935.13;10203375;29;20074;-74
2022/04/24 23:48:38;;;;;;;31.33;29.13;;;;;;;7.45;100.00;98936.53;10218401;29;20051;-73
2022/04/24 23:53:40;;;;;;;30.30;28.20;;;;;;;7.59;100.00;98939.50;10220382;29;20130;-74
2022/04/24 23:58:43;;;;;;;31.92;29.73;;;;;;;7.56;100.00;98934.38;10220324;29;20047;-73
